createdAt,value
2018-10-18T00:00:57.404Z,9.40
2018-10-18T00:03:26.040Z,9.57
2018-10-18T00:05:54.529Z,9.90
2018-10-18T00:08:23.114Z,10.43
2018-10-18T00:10:51.840Z,9.10
2018-10-18T00:13:20.408Z,10.47
2018-10-18T00:15:49.139Z,9.70
2018-10-18T00:18:17.815Z,9.67
2018-10-18T00:20:46.290Z,9.03
2018-10-18T00:23:14.821Z,8.57
2018-10-18T00:25:43.358Z,10.07
2018-10-18T00:28:12.495Z,12.10
2018-10-18T00:30:44.035Z,10.53
2018-10-18T00:33:12.593Z,9.57
2018-10-18T00:35:41.070Z,8.70
2018-10-18T00:38:09.667Z,9.07
2018-10-18T00:40:38.161Z,9.10
2018-10-18T00:43:06.722Z,10.57
2018-10-18T00:45:35.199Z,9.57
2018-10-18T00:48:03.864Z,11.07
2018-10-18T00:50:32.279Z,9.40
2018-10-18T00:53:00.837Z,10.93
2018-10-18T00:55:29.341Z,10.27
2018-10-18T00:57:57.904Z,10.33
2018-10-18T01:00:26.620Z,9.57
2018-10-18T01:02:55.130Z,9.70
2018-10-18T01:05:23.686Z,10.77
2018-10-18T01:07:52.406Z,8.63
2018-10-18T01:10:21.774Z,8.70
2018-10-18T01:12:50.412Z,12.00
2018-10-18T01:15:19.040Z,9.13
2018-10-18T01:17:47.605Z,10.07
2018-10-18T01:20:16.221Z,10.00
2018-10-18T01:22:44.803Z,9.80
2018-10-18T01:25:13.326Z,10.30
2018-10-18T01:27:42.562Z,9.97
2018-10-18T01:30:12.337Z,10.20
2018-10-18T01:32:40.826Z,9.43
2018-10-18T01:35:09.380Z,9.90
2018-10-18T01:37:37.887Z,10.27
2018-10-18T01:40:06.499Z,9.70
2018-10-18T01:42:35.118Z,12.93
2018-10-18T01:45:03.733Z,9.77
2018-10-18T01:47:32.282Z,8.90
2018-10-18T01:50:00.895Z,10.47
2018-10-18T01:52:29.476Z,9.47
2018-10-18T01:54:58.006Z,10.57
2018-10-18T01:57:26.561Z,9.90
2018-10-18T01:59:55.146Z,10.10
2018-10-18T02:02:23.750Z,9.30
2018-10-18T02:04:52.477Z,9.57
2018-10-18T02:07:20.979Z,9.53
2018-10-18T02:09:50.453Z,9.57
2018-10-18T02:12:19.013Z,9.17
2018-10-18T02:14:47.514Z,9.90
2018-10-18T02:17:16.004Z,10.80
2018-10-18T02:19:44.558Z,8.80
2018-10-18T02:22:13.069Z,10.03
2018-10-18T02:24:41.549Z,11.33
2018-10-18T02:27:10.109Z,10.00
2018-10-18T02:29:38.649Z,10.07
2018-10-18T02:32:07.157Z,9.40
2018-10-18T02:34:35.719Z,9.23
2018-10-18T02:37:04.645Z,10.53
2018-10-18T02:39:33.193Z,18.10
2018-10-18T02:42:01.725Z,10.23
2018-10-18T02:44:30.275Z,9.80
2018-10-18T02:46:58.811Z,10.40
2018-10-18T02:49:27.431Z,10.57
2018-10-18T02:51:56.100Z,13.50
2018-10-18T02:54:24.601Z,11.00
2018-10-18T02:56:53.188Z,10.37
2018-10-18T02:59:21.673Z,12.10
2018-10-18T03:01:50.177Z,10.10
2018-10-18T03:04:18.732Z,9.67
2018-10-18T03:06:47.372Z,9.53
2018-10-18T03:09:15.938Z,10.67
2018-10-18T03:11:45.113Z,13.93
2018-10-18T03:14:13.707Z,11.17
2018-10-18T03:16:42.352Z,11.37
2018-10-18T03:19:10.850Z,10.27
2018-10-18T03:21:39.333Z,10.00
2018-10-18T03:24:07.898Z,8.90
2018-10-18T03:26:36.423Z,11.13
2018-10-18T03:29:04.882Z,10.20
2018-10-18T03:31:33.359Z,10.50
2018-10-18T03:34:01.944Z,11.53
2018-10-18T03:36:30.444Z,10.67
2018-10-18T03:38:58.877Z,9.50
2018-10-18T03:41:27.399Z,12.73
2018-10-18T03:43:55.828Z,9.50
2018-10-18T03:46:24.455Z,10.40
2018-10-18T03:48:53.000Z,10.10
2018-10-18T03:51:21.557Z,10.80
2018-10-18T03:53:50.182Z,10.60
2018-10-18T03:56:18.661Z,10.23
2018-10-18T03:58:47.145Z,10.93
2018-10-18T04:01:15.689Z,11.10
2018-10-18T04:03:44.221Z,11.33
2018-10-18T04:06:13.359Z,12.63
2018-10-18T04:08:41.849Z,11.60
2018-10-18T04:11:10.358Z,10.60
2018-10-18T04:13:39.082Z,11.70
2018-10-18T04:16:07.874Z,13.60
2018-10-18T04:18:36.451Z,13.27
2018-10-18T04:21:05.048Z,12.07
2018-10-18T04:23:34.664Z,20.87
2018-10-18T04:26:04.101Z,16.93
2018-10-18T04:28:33.564Z,13.50
2018-10-18T04:31:03.037Z,15.97
2018-10-18T04:33:31.780Z,18.30
2018-10-18T04:36:00.299Z,14.60
2018-10-18T04:38:28.765Z,13.23
2018-10-18T04:40:57.306Z,12.50
2018-10-18T04:43:25.837Z,14.03
2018-10-18T04:45:54.438Z,18.50
2018-10-18T04:48:23.028Z,14.70
2018-10-18T04:50:51.548Z,18.60
2018-10-18T04:53:20.034Z,14.87
2018-10-18T04:55:48.615Z,22.53
2018-10-18T04:58:17.120Z,19.83
2018-10-18T05:00:45.725Z,18.97
2018-10-18T05:03:14.304Z,48.30
2018-10-18T05:05:51.841Z,15.90
2018-10-18T05:08:21.573Z,15.77
2018-10-18T05:10:50.203Z,15.27
2018-10-18T05:13:19.029Z,20.47
2018-10-18T05:15:47.560Z,15.53
2018-10-18T05:18:16.388Z,15.03
2018-10-18T05:20:45.097Z,16.17
2018-10-18T05:23:13.714Z,18.50
2018-10-18T05:25:42.656Z,16.00
2018-10-18T05:28:11.193Z,17.50
2018-10-18T05:30:39.751Z,16.90
2018-10-18T05:33:08.334Z,18.57
2018-10-18T05:35:37.178Z,17.60
2018-10-18T05:38:05.868Z,25.60
2018-10-18T05:40:34.423Z,26.87
2018-10-18T05:43:03.141Z,22.10
2018-10-18T05:45:31.649Z,29.77
2018-10-18T05:48:00.228Z,22.87
2018-10-18T05:50:28.909Z,27.27
2018-10-18T05:52:57.410Z,27.40
2018-10-18T05:58:08.252Z,33.37
2018-10-18T06:00:37.446Z,35.03
2018-10-18T06:03:06.377Z,37.27
2018-10-18T06:05:35.065Z,38.33
2018-10-18T06:08:04.649Z,36.60
2018-10-18T06:10:44.432Z,37.90
2018-10-18T06:13:13.633Z,35.37
2018-10-18T06:15:42.392Z,38.10
2018-10-18T06:18:11.277Z,35.90
2018-10-18T06:20:39.899Z,41.73
2018-10-18T06:23:08.618Z,44.10
2018-10-18T06:25:37.185Z,41.20
2018-10-18T06:28:05.922Z,40.17
2018-10-18T06:30:34.506Z,41.80
2018-10-18T06:33:03.274Z,38.60
2018-10-18T06:35:31.871Z,45.57
2018-10-18T06:38:00.591Z,38.87
2018-10-18T06:40:29.283Z,39.60
2018-10-18T06:42:57.963Z,42.07
2018-10-18T06:45:26.518Z,41.97
2018-10-18T06:47:55.456Z,43.17
2018-10-18T06:50:24.020Z,40.63
2018-10-18T06:52:52.635Z,39.00
2018-10-18T06:55:21.428Z,39.23
2018-10-18T06:57:49.980Z,39.60
2018-10-18T07:00:21.645Z,39.50
2018-10-18T07:02:50.860Z,46.43
2018-10-18T07:05:19.600Z,37.93
2018-10-18T07:07:48.183Z,41.87
2018-10-18T07:10:16.965Z,35.63
2018-10-18T07:12:45.640Z,39.43
2018-10-18T07:15:15.699Z,34.07
2018-10-18T07:17:44.861Z,34.33
2018-10-18T07:20:14.402Z,33.60
2018-10-18T07:22:43.166Z,36.87
2018-10-18T07:25:13.321Z,28.87
2018-10-18T07:27:42.553Z,33.30
2018-10-18T07:30:13.132Z,33.13
2018-10-18T07:32:42.153Z,31.37
2018-10-18T07:35:12.157Z,30.60
2018-10-18T07:37:40.869Z,26.00
2018-10-18T07:40:12.261Z,27.10
2018-10-18T07:42:40.919Z,32.40
2018-10-18T07:45:10.468Z,35.80
2018-10-18T07:47:40.373Z,28.57
2018-10-18T07:50:09.328Z,30.97
2018-10-18T07:52:38.139Z,31.70
2018-10-18T07:55:08.091Z,37.60
2018-10-18T07:57:36.809Z,34.00
2018-10-18T08:00:08.159Z,40.43
2018-10-18T08:02:36.829Z,35.93
2018-10-18T08:05:08.086Z,39.20
2018-10-18T08:07:37.310Z,41.37
2018-10-18T08:10:08.743Z,36.70
2018-10-18T08:12:37.444Z,39.43
2018-10-18T08:15:07.597Z,38.63
2018-10-18T08:17:36.318Z,46.63
2018-10-18T08:20:05.070Z,42.13
2018-10-18T08:22:33.717Z,38.40
2018-10-18T08:25:02.416Z,39.90
2018-10-18T08:27:31.123Z,40.00
2018-10-18T08:29:59.712Z,44.20
2018-10-18T08:32:28.497Z,38.50
2018-10-18T08:34:57.342Z,42.17
2018-10-18T08:37:26.437Z,46.90
2018-10-18T08:39:55.669Z,39.20
2018-10-18T08:42:24.907Z,39.67
2018-10-18T08:44:53.926Z,42.97
2018-10-18T08:47:22.629Z,41.50
2018-10-18T08:49:51.372Z,44.00
2018-10-18T08:52:20.314Z,40.67
2018-10-18T08:54:48.930Z,43.80
2018-10-18T08:57:18.118Z,43.83
2018-10-18T08:59:47.231Z,43.93
2018-10-18T09:02:16.568Z,41.40
2018-10-18T09:04:46.013Z,48.37
2018-10-18T09:07:15.147Z,40.13
2018-10-18T09:09:44.009Z,45.63
2018-10-18T09:12:13.029Z,50.23
2018-10-18T09:14:42.078Z,44.27
2018-10-18T09:17:11.083Z,56.27
2018-10-18T09:19:40.352Z,48.83
2018-10-18T09:22:09.474Z,42.30
2018-10-18T09:24:38.481Z,41.70
2018-10-18T09:27:07.647Z,45.50
2018-10-18T09:29:36.603Z,44.93
2018-10-18T09:32:05.824Z,44.43
2018-10-18T09:34:34.625Z,45.43
2018-10-18T09:37:03.449Z,45.10
2018-10-18T09:39:32.029Z,44.50
2018-10-18T09:42:01.718Z,43.87
2018-10-18T09:44:30.494Z,42.10
2018-10-18T09:46:59.183Z,39.50
2018-10-18T09:49:27.840Z,41.67
2018-10-18T09:51:56.426Z,40.93
2018-10-18T09:54:24.986Z,40.03
2018-10-18T09:56:53.530Z,36.97
2018-10-18T09:59:22.077Z,40.80
2018-10-18T10:01:56.647Z,39.63
2018-10-18T10:04:25.538Z,35.93
2018-10-18T10:06:54.137Z,34.27
2018-10-18T10:09:23.321Z,37.00
2018-10-18T10:11:52.125Z,35.00
2018-10-18T10:14:20.725Z,38.63
2018-10-18T10:16:49.406Z,34.00
2018-10-18T10:19:18.092Z,35.50
2018-10-18T10:21:46.625Z,33.37
2018-10-18T10:24:15.205Z,32.70
2018-10-18T10:26:43.887Z,36.23
2018-10-18T10:29:12.474Z,33.70
2018-10-18T10:31:41.132Z,30.87
2018-10-18T10:34:09.743Z,33.00
2018-10-18T10:36:38.370Z,38.57
2018-10-18T10:39:09.011Z,33.37
2018-10-18T10:41:37.668Z,33.83
2018-10-18T10:44:08.403Z,31.90
2018-10-18T10:46:38.944Z,31.00
2018-10-18T10:49:08.630Z,30.03
2018-10-18T10:51:37.996Z,33.13
2018-10-18T10:54:07.928Z,31.30
2018-10-18T10:56:36.525Z,30.13
2018-10-18T10:59:11.718Z,29.37
2018-10-18T11:01:40.433Z,35.60
2018-10-18T11:04:09.078Z,28.73
2018-10-18T11:06:37.583Z,30.90
2018-10-18T11:09:08.302Z,33.03
2018-10-18T11:11:36.985Z,29.80
2018-10-18T11:14:05.844Z,29.57
2018-10-18T11:16:34.495Z,32.10
2018-10-18T11:19:03.194Z,30.97
2018-10-18T11:21:31.699Z,31.47
2018-10-18T11:24:00.450Z,30.77
2018-10-18T11:26:28.956Z,27.00
2018-10-18T11:28:57.526Z,28.70
2018-10-18T11:31:26.173Z,31.23
2018-10-18T11:33:55.022Z,25.80
2018-10-18T11:36:23.734Z,28.27
2018-10-18T11:38:52.309Z,30.10
2018-10-18T11:41:20.982Z,26.57
2018-10-18T11:43:50.038Z,25.20
2018-10-18T11:46:19.102Z,34.03
2018-10-18T11:48:48.202Z,28.03
2018-10-18T11:51:17.278Z,24.00
2018-10-18T11:53:46.133Z,23.97
2018-10-18T11:56:15.307Z,25.27
2018-10-18T11:58:44.343Z,27.10
2018-10-18T12:01:13.453Z,28.87
2018-10-18T12:03:42.371Z,26.93
2018-10-18T12:06:11.503Z,26.73
2018-10-18T12:08:40.602Z,28.00
2018-10-18T12:11:09.714Z,27.47
2018-10-18T12:13:38.664Z,27.00
2018-10-18T12:16:07.379Z,29.97
2018-10-18T12:18:36.168Z,30.43
2018-10-18T12:21:05.164Z,28.23
2018-10-18T12:23:34.187Z,28.17
2018-10-18T12:26:03.311Z,37.37
2018-10-18T12:28:31.842Z,28.70
2018-10-18T12:31:00.477Z,26.00
2018-10-18T12:33:29.155Z,29.67
2018-10-18T12:35:58.122Z,32.90
2018-10-18T12:38:26.785Z,27.20
2018-10-18T12:40:55.366Z,42.70
2018-10-18T12:43:23.982Z,26.50
2018-10-18T12:45:52.627Z,30.70
2018-10-18T12:48:21.933Z,32.40
2018-10-18T12:50:50.546Z,26.90
2018-10-18T12:53:19.211Z,29.63
2018-10-18T12:55:47.871Z,26.40
2018-10-18T12:58:16.542Z,33.30
2018-10-18T13:00:45.313Z,26.20
2018-10-18T13:03:14.147Z,31.70
2018-10-18T13:05:42.805Z,29.90
2018-10-18T13:08:11.535Z,33.40
2018-10-18T13:10:40.683Z,31.33
2018-10-18T13:13:09.335Z,35.20
2018-10-18T13:15:38.015Z,36.93
2018-10-18T13:18:07.175Z,31.60
2018-10-18T13:20:35.846Z,26.60
2018-10-18T13:23:05.821Z,33.57
2018-10-18T13:25:34.471Z,35.40
2018-10-18T13:28:03.193Z,36.10
2018-10-18T13:30:32.029Z,29.90
2018-10-18T13:33:00.744Z,31.60
2018-10-18T13:35:29.489Z,35.30
2018-10-18T13:37:58.436Z,28.67
2018-10-18T13:40:27.353Z,34.13
2018-10-18T13:42:56.008Z,31.30
2018-10-18T13:45:24.718Z,33.07
2018-10-18T13:47:53.446Z,30.50
2018-10-18T13:50:22.132Z,34.80
2018-10-18T13:52:51.416Z,31.37
2018-10-18T13:55:20.136Z,31.93
2018-10-18T13:57:48.755Z,28.00
2018-10-18T14:00:21.237Z,32.90
2018-10-18T14:02:50.696Z,25.70
2018-10-18T14:05:19.632Z,25.00
2018-10-18T14:07:49.225Z,25.07
2018-10-18T14:10:17.741Z,28.83
2018-10-18T14:12:46.416Z,33.93
2018-10-18T14:15:15.082Z,28.30
2018-10-18T14:17:43.735Z,30.47
2018-10-18T14:20:12.682Z,33.57
2018-10-18T14:22:41.514Z,35.40
2018-10-18T14:25:10.481Z,37.57
2018-10-18T14:27:39.597Z,33.67
2018-10-18T14:30:10.340Z,35.37
2018-10-18T14:32:38.991Z,31.20
2018-10-18T14:35:09.191Z,38.47
2018-10-18T14:37:37.686Z,26.83
2018-10-18T14:40:07.502Z,33.37
2018-10-18T14:42:36.329Z,31.97
2018-10-18T14:45:06.493Z,35.50
2018-10-18T14:47:35.128Z,26.50
2018-10-18T14:50:04.217Z,32.83
2018-10-18T14:52:32.789Z,34.13
2018-10-18T14:55:01.442Z,29.23
2018-10-18T14:57:30.124Z,26.57
2018-10-18T14:59:58.803Z,29.33
2018-10-18T15:02:27.361Z,30.00
2018-10-18T15:04:56.677Z,30.50
2018-10-18T15:07:25.273Z,34.03
2018-10-18T15:09:53.999Z,29.33
2018-10-18T15:12:22.695Z,34.07
2018-10-18T15:14:51.413Z,29.87
2018-10-18T15:17:20.197Z,31.13
2018-10-18T15:19:49.064Z,26.60
2018-10-18T15:22:18.302Z,33.53
2018-10-18T15:24:46.926Z,34.40
2018-10-18T15:27:16.187Z,30.17
2018-10-18T15:29:44.846Z,31.80
2018-10-18T15:32:13.557Z,32.33
2018-10-18T15:34:42.270Z,29.47
2018-10-18T15:37:10.887Z,25.97
2018-10-18T15:39:39.516Z,27.37
2018-10-18T15:42:08.335Z,26.97
2018-10-18T15:44:36.991Z,33.93
2018-10-18T15:47:06.072Z,27.07
2018-10-18T15:49:34.723Z,26.43
2018-10-18T15:52:03.402Z,25.93
2018-10-18T15:54:32.132Z,29.30
2018-10-18T15:57:02.499Z,27.00
2018-10-18T15:59:31.179Z,27.63
2018-10-18T16:01:59.816Z,26.67
2018-10-18T16:04:29.269Z,27.80
2018-10-18T16:06:57.926Z,27.03
2018-10-18T16:09:26.566Z,31.13
2018-10-18T16:11:55.260Z,29.60
2018-10-18T16:14:24.000Z,30.63
2018-10-18T16:16:52.767Z,28.07
2018-10-18T16:19:21.410Z,28.83
2018-10-18T16:21:50.178Z,26.93
2018-10-18T16:24:18.710Z,30.80
2018-10-18T16:26:48.165Z,28.87
2018-10-18T16:29:17.635Z,28.17
2018-10-18T16:31:47.056Z,25.60
2018-10-18T16:34:16.137Z,24.90
2018-10-18T16:36:44.842Z,27.90
2018-10-18T16:39:14.278Z,25.07
2018-10-18T16:41:43.212Z,30.50
2018-10-18T16:44:11.950Z,25.83
2018-10-18T16:46:40.597Z,25.33
2018-10-18T16:49:10.698Z,25.93
2018-10-18T16:51:39.641Z,30.47
2018-10-18T16:54:09.167Z,26.50
2018-10-18T16:56:38.218Z,24.43
2018-10-18T16:59:07.007Z,22.43
2018-10-18T17:01:36.349Z,24.03
2018-10-18T17:04:05.789Z,22.80
2018-10-18T17:06:35.017Z,26.63
2018-10-18T17:09:04.129Z,20.90
2018-10-18T17:11:32.869Z,28.30
2018-10-18T17:14:01.540Z,30.60
2018-10-18T17:16:33.052Z,25.00
2018-10-18T17:19:02.462Z,25.07
2018-10-18T17:21:31.860Z,24.50
2018-10-18T17:24:01.178Z,21.97
2018-10-18T17:26:30.090Z,25.10
2018-10-18T17:28:59.499Z,24.30
2018-10-18T17:31:35.959Z,23.33
2018-10-18T17:34:05.076Z,27.17
2018-10-18T17:36:34.979Z,22.50
2018-10-18T17:39:06.608Z,21.30
2018-10-18T17:41:35.645Z,27.67
2018-10-18T17:44:05.905Z,20.23
2018-10-18T17:46:34.475Z,26.40
2018-10-18T17:49:05.090Z,22.60
2018-10-18T17:51:34.728Z,27.13
2018-10-18T17:54:03.618Z,24.27
2018-10-18T17:56:34.318Z,25.23
2018-10-18T17:59:04.004Z,23.37
2018-10-18T18:01:32.864Z,25.90
2018-10-18T18:04:04.085Z,24.20
2018-10-18T18:06:32.784Z,22.87
2018-10-18T18:11:30.713Z,21.60
2018-10-18T18:14:00.390Z,24.13
2018-10-18T18:16:30.110Z,23.73
2018-10-18T18:18:58.665Z,19.57
2018-10-18T18:21:27.803Z,22.93
2018-10-18T18:23:57.017Z,23.60
2018-10-18T18:26:32.602Z,24.10
2018-10-18T18:28:54.135Z,22.67
2018-10-18T18:31:22.822Z,22.97
2018-10-18T18:33:51.309Z,21.00
2018-10-18T18:36:20.155Z,21.87
2018-10-18T18:38:48.786Z,20.57
2018-10-18T18:41:17.274Z,24.33
2018-10-18T18:43:46.709Z,19.63
2018-10-18T18:46:15.403Z,20.87
2018-10-18T18:48:43.946Z,22.13
2018-10-18T18:51:12.515Z,19.67
2018-10-18T18:53:41.034Z,19.47
2018-10-18T18:56:09.681Z,21.43
2018-10-18T18:58:38.276Z,21.50
2018-10-18T19:01:06.949Z,20.17
2018-10-18T19:03:36.085Z,20.00
2018-10-18T19:06:05.517Z,23.97
2018-10-18T19:08:34.230Z,24.70
2018-10-18T19:11:02.855Z,25.07
2018-10-18T19:13:31.714Z,22.30
2018-10-18T19:16:00.400Z,20.60
2018-10-18T19:18:28.990Z,22.10
2018-10-18T19:20:57.645Z,19.17
2018-10-18T19:23:26.266Z,25.07
2018-10-18T19:25:55.907Z,23.33
2018-10-18T19:28:24.471Z,24.90
2018-10-18T19:30:53.327Z,22.23
2018-10-18T19:33:21.998Z,26.60
2018-10-18T19:35:50.717Z,23.97
2018-10-18T19:38:19.933Z,23.50
2018-10-18T19:40:48.437Z,20.30
2018-10-18T19:43:17.042Z,21.03
2018-10-18T19:45:45.921Z,21.67
2018-10-18T19:48:14.316Z,22.43
2018-10-18T19:50:43.137Z,21.43
2018-10-18T19:53:11.687Z,22.60
2018-10-18T19:55:40.257Z,25.60
2018-10-18T19:58:08.849Z,25.20
2018-10-18T20:00:37.522Z,22.37
2018-10-18T20:03:07.004Z,20.43
2018-10-18T20:05:35.525Z,24.97
2018-10-18T20:08:04.962Z,20.93
2018-10-18T20:10:33.888Z,19.63
2018-10-18T20:13:03.074Z,23.00
2018-10-18T20:15:31.838Z,22.27
2018-10-18T20:18:00.504Z,23.13
2018-10-18T20:20:29.014Z,23.30
2018-10-18T20:22:57.730Z,21.50
2018-10-18T20:25:26.809Z,25.20
2018-10-18T20:27:55.433Z,19.53
2018-10-18T20:30:23.964Z,24.33
2018-10-18T20:32:52.506Z,22.37
2018-10-18T20:35:21.102Z,23.90
2018-10-18T20:37:49.721Z,20.43
2018-10-18T20:40:18.392Z,20.37
2018-10-18T20:42:46.895Z,21.73
2018-10-18T20:45:21.157Z,18.50
2018-10-18T20:47:49.830Z,20.60
2018-10-18T20:50:18.547Z,17.93
2018-10-18T20:52:47.116Z,20.40
2018-10-18T20:55:15.669Z,17.80
2018-10-18T20:57:44.987Z,16.90
2018-10-18T21:00:14.940Z,19.40
2018-10-18T21:02:43.467Z,19.33
2018-10-18T21:05:11.990Z,18.00
2018-10-18T21:07:40.533Z,16.90
2018-10-18T21:10:09.459Z,15.57
2018-10-18T21:12:38.141Z,20.97
2018-10-18T21:15:07.141Z,17.47
2018-10-18T21:17:35.770Z,16.67
2018-10-18T21:20:04.525Z,15.40
2018-10-18T21:22:33.116Z,13.50
2018-10-18T21:25:01.686Z,16.70
2018-10-18T21:27:30.262Z,14.50
2018-10-18T21:29:58.786Z,14.30
2018-10-18T21:32:27.350Z,12.83
2018-10-18T21:34:56.593Z,13.30
2018-10-18T21:37:25.197Z,11.43
2018-10-18T21:39:53.761Z,13.60
2018-10-18T21:42:22.903Z,13.43
2018-10-18T21:44:52.318Z,13.27
2018-10-18T21:47:22.119Z,12.00
2018-10-18T21:49:50.624Z,15.03
2018-10-18T21:52:20.051Z,16.43
2018-10-18T21:54:48.942Z,15.03
2018-10-18T21:57:17.507Z,14.40
2018-10-18T21:59:46.085Z,13.70
2018-10-18T22:02:14.624Z,10.70
2018-10-18T22:04:43.222Z,11.30
2018-10-18T22:07:11.817Z,13.87
2018-10-18T22:09:40.376Z,8.97
2018-10-18T22:12:08.941Z,7.93
2018-10-18T22:14:37.347Z,7.00
2018-10-18T22:17:07.091Z,8.83
2018-10-18T22:19:35.522Z,9.20
2018-10-18T22:22:04.112Z,6.80
2018-10-18T22:24:39.262Z,7.03
2018-10-18T22:27:07.950Z,7.03
2018-10-18T22:29:36.435Z,8.00
2018-10-18T22:32:05.374Z,5.70
2018-10-18T22:34:33.876Z,6.57
2018-10-18T22:37:02.419Z,6.33
2018-10-18T22:39:30.969Z,8.03
2018-10-18T22:42:01.135Z,6.13
2018-10-18T22:44:29.688Z,5.80
2018-10-18T22:46:58.199Z,5.20
2018-10-18T22:49:26.657Z,5.30
2018-10-18T22:51:55.253Z,4.30
2018-10-18T22:54:23.775Z,3.97
2018-10-18T22:56:52.214Z,4.37
2018-10-18T22:59:21.769Z,4.17
2018-10-18T23:01:51.201Z,4.00
2018-10-18T23:04:19.710Z,4.57
2018-10-18T23:06:48.755Z,4.57
2018-10-18T23:09:17.882Z,7.43
2018-10-18T23:11:47.460Z,6.90
2018-10-18T23:14:15.941Z,4.77
2018-10-18T23:16:44.424Z,4.10
2018-10-18T23:19:12.931Z,4.60
2018-10-18T23:21:41.393Z,3.50
2018-10-18T23:24:09.909Z,9.43
2018-10-18T23:26:38.477Z,4.33
2018-10-18T23:29:07.079Z,4.30
2018-10-18T23:31:35.608Z,3.90
2018-10-18T23:34:04.189Z,4.10
2018-10-18T23:36:32.726Z,4.70
2018-10-18T23:39:01.264Z,4.10
2018-10-18T23:41:29.959Z,5.20
2018-10-18T23:43:58.469Z,4.17
2018-10-18T23:46:27.622Z,5.60
2018-10-18T23:48:56.157Z,4.03
2018-10-18T23:51:25.245Z,4.97
2018-10-18T23:53:53.681Z,4.03
2018-10-18T23:56:22.165Z,5.67
2018-10-18T23:58:50.694Z,4.87
